sensor_id;sensor_type;location;lat;lon;timestamp;temperature;humidity
33073;DHT22;19432;48.946;8.846;2022-08-21T00:02:21;20.20;78.80
33073;DHT22;19432;48.946;8.846;2022-08-21T00:04:47;20.20;78.90
33073;DHT22;19432;48.946;8.846;2022-08-21T00:07:14;20.20;79.20
33073;DHT22;19432;48.946;8.846;2022-08-21T00:09:40;20.20;79.20
33073;DHT22;19432;48.946;8.846;2022-08-21T00:12:06;20.20;79.20
33073;DHT22;19432;48.946;8.846;2022-08-21T00:14:33;20.10;79.20
33073;DHT22;19432;48.946;8.846;2022-08-21T00:17:00;20.10;79.30
33073;DHT22;19432;48.946;8.846;2022-08-21T00:19:26;20.10;79.20
33073;DHT22;19432;48.946;8.846;2022-08-21T00:21:53;20.10;79.30
33073;DHT22;19432;48.946;8.846;2022-08-21T00:24:20;20.10;79.60
33073;DHT22;19432;48.946;8.846;2022-08-21T00:26:46;20.10;79.80
33073;DHT22;19432;48.946;8.846;2022-08-21T00:29:13;20.10;80.00
33073;DHT22;19432;48.946;8.846;2022-08-21T00:31:39;20.00;79.80
33073;DHT22;19432;48.946;8.846;2022-08-21T00:34:05;20.00;80.00
33073;DHT22;19432;48.946;8.846;2022-08-21T00:36:33;20.00;80.10
33073;DHT22;19432;48.946;8.846;2022-08-21T00:38:59;19.90;80.40
33073;DHT22;19432;48.946;8.846;2022-08-21T00:41:25;19.90;81.10
33073;DHT22;19432;48.946;8.846;2022-08-21T00:43:52;19.90;80.50
33073;DHT22;19432;48.946;8.846;2022-08-21T00:46:18;19.90;80.60
33073;DHT22;19432;48.946;8.846;2022-08-21T00:48:44;19.80;80.70
33073;DHT22;19432;48.946;8.846;2022-08-21T00:51:14;19.80;80.90
33073;DHT22;19432;48.946;8.846;2022-08-21T00:53:43;19.80;81.10
33073;DHT22;19432;48.946;8.846;2022-08-21T00:56:10;19.80;81.80
33073;DHT22;19432;48.946;8.846;2022-08-21T00:58:39;19.70;81.30
33073;DHT22;19432;48.946;8.846;2022-08-21T01:01:07;19.70;81.40
33073;DHT22;19432;48.946;8.846;2022-08-21T01:03:34;19.70;81.60
33073;DHT22;19432;48.946;8.846;2022-08-21T01:06:00;19.60;81.80
33073;DHT22;19432;48.946;8.846;2022-08-21T01:08:27;19.60;81.80
33073;DHT22;19432;48.946;8.846;2022-08-21T01:10:54;19.60;82.20
33073;DHT22;19432;48.946;8.846;2022-08-21T01:13:21;19.60;82.10
33073;DHT22;19432;48.946;8.846;2022-08-21T01:15:51;19.50;82.10
33073;DHT22;19432;48.946;8.846;2022-08-21T01:18:19;19.50;82.20
33073;DHT22;19432;48.946;8.846;2022-08-21T01:21:09;19.50;82.40
33073;DHT22;19432;48.946;8.846;2022-08-21T01:23:39;19.40;82.50
33073;DHT22;19432;48.946;8.846;2022-08-21T01:26:05;19.40;82.70
33073;DHT22;19432;48.946;8.846;2022-08-21T01:28:37;19.40;82.80
33073;DHT22;19432;48.946;8.846;2022-08-21T01:31:05;19.40;82.90
33073;DHT22;19432;48.946;8.846;2022-08-21T01:33:33;19.30;82.90
33073;DHT22;19432;48.946;8.846;2022-08-21T01:35:58;19.30;82.90
33073;DHT22;19432;48.946;8.846;2022-08-21T01:38:24;19.30;83.00
33073;DHT22;19432;48.946;8.846;2022-08-21T01:40:50;19.30;82.90
33073;DHT22;19432;48.946;8.846;2022-08-21T01:43:16;19.30;82.90
33073;DHT22;19432;48.946;8.846;2022-08-21T01:45:42;19.30;82.90
33073;DHT22;19432;48.946;8.846;2022-08-21T01:48:08;19.30;83.70
33073;DHT22;19432;48.946;8.846;2022-08-21T01:50:33;19.30;83.00
33073;DHT22;19432;48.946;8.846;2022-08-21T01:52:59;19.30;83.10
33073;DHT22;19432;48.946;8.846;2022-08-21T01:55:25;19.20;83.10
33073;DHT22;19432;48.946;8.846;2022-08-21T01:57:50;19.20;83.20
33073;DHT22;19432;48.946;8.846;2022-08-21T02:00:19;19.10;83.30
33073;DHT22;19432;48.946;8.846;2022-08-21T02:02:45;19.10;83.50
33073;DHT22;19432;48.946;8.846;2022-08-21T02:05:11;19.10;83.70
33073;DHT22;19432;48.946;8.846;2022-08-21T02:07:39;19.10;83.90
33073;DHT22;19432;48.946;8.846;2022-08-21T02:10:07;19.10;84.20
33073;DHT22;19432;48.946;8.846;2022-08-21T02:12:33;19.10;84.30
33073;DHT22;19432;48.946;8.846;2022-08-21T02:14:59;19.00;84.30
33073;DHT22;19432;48.946;8.846;2022-08-21T02:17:25;19.00;84.20
33073;DHT22;19432;48.946;8.846;2022-08-21T02:19:51;19.00;84.30
33073;DHT22;19432;48.946;8.846;2022-08-21T02:22:17;19.00;84.30
33073;DHT22;19432;48.946;8.846;2022-08-21T02:24:43;18.90;84.40
33073;DHT22;19432;48.946;8.846;2022-08-21T02:27:09;18.90;84.60
33073;DHT22;19432;48.946;8.846;2022-08-21T02:29:35;18.80;85.00
33073;DHT22;19432;48.946;8.846;2022-08-21T02:32:00;18.80;85.30
33073;DHT22;19432;48.946;8.846;2022-08-21T02:34:26;18.70;85.60
33073;DHT22;19432;48.946;8.846;2022-08-21T02:36:51;18.70;85.80
33073;DHT22;19432;48.946;8.846;2022-08-21T02:39:17;18.60;86.10
33073;DHT22;19432;48.946;8.846;2022-08-21T02:41:42;18.60;86.30
33073;DHT22;19432;48.946;8.846;2022-08-21T02:44:08;18.60;86.50
33073;DHT22;19432;48.946;8.846;2022-08-21T02:46:34;18.50;86.70
33073;DHT22;19432;48.946;8.846;2022-08-21T02:48:59;18.50;86.90
33073;DHT22;19432;48.946;8.846;2022-08-21T02:51:25;18.40;86.90
33073;DHT22;19432;48.946;8.846;2022-08-21T02:53:51;18.40;87.00
33073;DHT22;19432;48.946;8.846;2022-08-21T02:56:19;18.40;87.30
33073;DHT22;19432;48.946;8.846;2022-08-21T02:58:49;18.30;87.40
33073;DHT22;19432;48.946;8.846;2022-08-21T03:01:15;18.30;87.40
33073;DHT22;19432;48.946;8.846;2022-08-21T03:03:43;18.30;87.50
33073;DHT22;19432;48.946;8.846;2022-08-21T03:06:11;18.30;87.60
33073;DHT22;19432;48.946;8.846;2022-08-21T03:08:37;18.20;87.60
33073;DHT22;19432;48.946;8.846;2022-08-21T03:11:04;18.30;87.70
33073;DHT22;19432;48.946;8.846;2022-08-21T03:13:30;18.20;87.60
33073;DHT22;19432;48.946;8.846;2022-08-21T03:15:56;18.20;87.80
33073;DHT22;19432;48.946;8.846;2022-08-21T03:18:22;18.20;87.70
33073;DHT22;19432;48.946;8.846;2022-08-21T03:20:48;18.20;87.90
33073;DHT22;19432;48.946;8.846;2022-08-21T03:23:14;18.20;88.10
33073;DHT22;19432;48.946;8.846;2022-08-21T03:25:41;18.20;88.10
33073;DHT22;19432;48.946;8.846;2022-08-21T03:28:12;18.20;88.00
33073;DHT22;19432;48.946;8.846;2022-08-21T03:30:40;18.20;88.00
33073;DHT22;19432;48.946;8.846;2022-08-21T03:33:05;18.20;88.10
33073;DHT22;19432;48.946;8.846;2022-08-21T03:35:31;18.20;88.20
33073;DHT22;19432;48.946;8.846;2022-08-21T03:37:57;18.10;88.10
33073;DHT22;19432;48.946;8.846;2022-08-21T03:40:23;18.10;88.20
33073;DHT22;19432;48.946;8.846;2022-08-21T03:42:50;18.10;88.50
33073;DHT22;19432;48.946;8.846;2022-08-21T03:45:17;18.00;88.40
33073;DHT22;19432;48.946;8.846;2022-08-21T03:48:02;18.10;88.50
33073;DHT22;19432;48.946;8.846;2022-08-21T03:50:31;18.00;88.40
33073;DHT22;19432;48.946;8.846;2022-08-21T03:52:58;18.00;88.50
33073;DHT22;19432;48.946;8.846;2022-08-21T03:55:24;18.00;88.70
33073;DHT22;19432;48.946;8.846;2022-08-21T03:57:50;18.00;88.70
33073;DHT22;19432;48.946;8.846;2022-08-21T04:00:16;17.90;88.80
33073;DHT22;19432;48.946;8.846;2022-08-21T04:02:44;17.90;88.80
33073;DHT22;19432;48.946;8.846;2022-08-21T04:05:11;17.90;88.80
33073;DHT22;19432;48.946;8.846;2022-08-21T04:07:37;17.90;89.00
33073;DHT22;19432;48.946;8.846;2022-08-21T04:10:05;17.90;89.00
33073;DHT22;19432;48.946;8.846;2022-08-21T04:12:31;17.80;89.20
33073;DHT22;19432;48.946;8.846;2022-08-21T04:14:57;17.80;89.20
33073;DHT22;19432;48.946;8.846;2022-08-21T04:17:22;17.80;89.30
33073;DHT22;19432;48.946;8.846;2022-08-21T04:19:48;17.70;89.10
33073;DHT22;19432;48.946;8.846;2022-08-21T04:22:15;17.70;89.30
33073;DHT22;19432;48.946;8.846;2022-08-21T04:24:41;17.70;89.40
33073;DHT22;19432;48.946;8.846;2022-08-21T04:27:07;17.70;89.40
33073;DHT22;19432;48.946;8.846;2022-08-21T04:29:32;17.70;89.50
33073;DHT22;19432;48.946;8.846;2022-08-21T04:31:58;17.70;89.60
33073;DHT22;19432;48.946;8.846;2022-08-21T04:34:24;17.70;89.70
33073;DHT22;19432;48.946;8.846;2022-08-21T04:36:50;17.60;89.60
33073;DHT22;19432;48.946;8.846;2022-08-21T04:39:16;17.60;89.60
33073;DHT22;19432;48.946;8.846;2022-08-21T04:41:41;17.60;89.60
33073;DHT22;19432;48.946;8.846;2022-08-21T04:44:07;17.60;89.80
33073;DHT22;19432;48.946;8.846;2022-08-21T04:46:34;17.60;89.80
33073;DHT22;19432;48.946;8.846;2022-08-21T04:49:00;17.60;90.00
33073;DHT22;19432;48.946;8.846;2022-08-21T04:51:30;17.60;90.00
33073;DHT22;19432;48.946;8.846;2022-08-21T04:56:42;17.50;90.20
33073;DHT22;19432;48.946;8.846;2022-08-21T04:59:15;17.50;90.20
33073;DHT22;19432;48.946;8.846;2022-08-21T05:01:41;17.60;90.20
33073;DHT22;19432;48.946;8.846;2022-08-21T05:04:10;17.60;90.20
33073;DHT22;19432;48.946;8.846;2022-08-21T05:06:37;17.60;90.10
33073;DHT22;19432;48.946;8.846;2022-08-21T05:09:04;17.60;90.10
33073;DHT22;19432;48.946;8.846;2022-08-21T05:11:31;17.60;90.20
33073;DHT22;19432;48.946;8.846;2022-08-21T05:13:57;17.60;90.20
33073;DHT22;19432;48.946;8.846;2022-08-21T05:16:23;17.50;90.20
33073;DHT22;19432;48.946;8.846;2022-08-21T05:18:49;17.60;90.30
33073;DHT22;19432;48.946;8.846;2022-08-21T05:21:15;17.60;90.20
33073;DHT22;19432;48.946;8.846;2022-08-21T05:23:41;17.60;90.30
33073;DHT22;19432;48.946;8.846;2022-08-21T05:26:08;17.70;90.20
33073;DHT22;19432;48.946;8.846;2022-08-21T05:28:34;17.70;90.60
33073;DHT22;19432;48.946;8.846;2022-08-21T05:30:59;17.70;90.30
33073;DHT22;19432;48.946;8.846;2022-08-21T05:33:25;17.80;90.30
33073;DHT22;19432;48.946;8.846;2022-08-21T05:35:52;17.80;90.30
33073;DHT22;19432;48.946;8.846;2022-08-21T05:38:21;17.80;90.30
33073;DHT22;19432;48.946;8.846;2022-08-21T05:40:46;17.90;90.30
33073;DHT22;19432;48.946;8.846;2022-08-21T05:43:12;17.90;90.20
33073;DHT22;19432;48.946;8.846;2022-08-21T05:45:38;18.00;90.30
33073;DHT22;19432;48.946;8.846;2022-08-21T05:48:12;18.00;90.20
33073;DHT22;19432;48.946;8.846;2022-08-21T05:50:38;18.00;90.20
33073;DHT22;19432;48.946;8.846;2022-08-21T05:53:05;18.10;90.20
33073;DHT22;19432;48.946;8.846;2022-08-21T05:55:30;18.10;90.20
33073;DHT22;19432;48.946;8.846;2022-08-21T05:57:56;18.10;90.30
33073;DHT22;19432;48.946;8.846;2022-08-21T06:00:22;18.10;90.30
33073;DHT22;19432;48.946;8.846;2022-08-21T06:02:48;18.10;90.30
33073;DHT22;19432;48.946;8.846;2022-08-21T06:05:16;18.10;90.40
33073;DHT22;19432;48.946;8.846;2022-08-21T06:07:42;18.20;90.30
33073;DHT22;19432;48.946;8.846;2022-08-21T06:10:08;18.20;90.20
33073;DHT22;19432;48.946;8.846;2022-08-21T06:12:34;18.20;90.30
33073;DHT22;19432;48.946;8.846;2022-08-21T06:14:59;18.30;90.20
33073;DHT22;19432;48.946;8.846;2022-08-21T06:17:25;18.40;90.20
33073;DHT22;19432;48.946;8.846;2022-08-21T06:19:52;18.50;90.10
33073;DHT22;19432;48.946;8.846;2022-08-21T06:22:18;18.50;90.00
33073;DHT22;19432;48.946;8.846;2022-08-21T06:24:44;18.60;89.80
33073;DHT22;19432;48.946;8.846;2022-08-21T06:27:09;18.60;89.50
33073;DHT22;19432;48.946;8.846;2022-08-21T06:29:35;18.60;89.20
33073;DHT22;19432;48.946;8.846;2022-08-21T06:32:02;18.70;89.00
33073;DHT22;19432;48.946;8.846;2022-08-21T06:34:27;18.70;88.70
33073;DHT22;19432;48.946;8.846;2022-08-21T06:36:53;18.80;89.00
33073;DHT22;19432;48.946;8.846;2022-08-21T06:39:19;18.90;88.90
33073;DHT22;19432;48.946;8.846;2022-08-21T06:41:44;19.00;88.60
33073;DHT22;19432;48.946;8.846;2022-08-21T06:44:10;19.00;88.30
33073;DHT22;19432;48.946;8.846;2022-08-21T06:46:36;19.10;88.00
33073;DHT22;19432;48.946;8.846;2022-08-21T06:49:01;19.20;88.10
33073;DHT22;19432;48.946;8.846;2022-08-21T06:51:27;19.30;87.80
33073;DHT22;19432;48.946;8.846;2022-08-21T06:53:54;19.40;87.40
33073;DHT22;19432;48.946;8.846;2022-08-21T06:56:20;19.50;87.00
33073;DHT22;19432;48.946;8.846;2022-08-21T06:58:46;19.70;86.70
33073;DHT22;19432;48.946;8.846;2022-08-21T07:01:11;19.90;86.00
33073;DHT22;19432;48.946;8.846;2022-08-21T07:03:42;20.10;85.60
33073;DHT22;19432;48.946;8.846;2022-08-21T07:06:09;20.30;85.00
33073;DHT22;19432;48.946;8.846;2022-08-21T07:08:36;20.60;84.30
33073;DHT22;19432;48.946;8.846;2022-08-21T07:11:12;20.80;83.30
33073;DHT22;19432;48.946;8.846;2022-08-21T07:13:38;21.10;81.70
33073;DHT22;19432;48.946;8.846;2022-08-21T07:16:04;21.30;80.60
33073;DHT22;19432;48.946;8.846;2022-08-21T07:18:30;21.50;79.50
33073;DHT22;19432;48.946;8.846;2022-08-21T07:20:56;21.80;79.40
33073;DHT22;19432;48.946;8.846;2022-08-21T07:23:23;22.10;79.20
33073;DHT22;19432;48.946;8.846;2022-08-21T07:25:50;22.30;78.50
33073;DHT22;19432;48.946;8.846;2022-08-21T07:28:15;22.50;77.50
33073;DHT22;19432;48.946;8.846;2022-08-21T07:30:41;22.70;76.90
33073;DHT22;19432;48.946;8.846;2022-08-21T07:33:06;23.00;77.00
33073;DHT22;19432;48.946;8.846;2022-08-21T07:35:32;23.20;76.10
33073;DHT22;19432;48.946;8.846;2022-08-21T07:37:58;23.30;75.10
33073;DHT22;19432;48.946;8.846;2022-08-21T07:40:25;23.60;74.30
33073;DHT22;19432;48.946;8.846;2022-08-21T07:42:50;23.80;73.80
33073;DHT22;19432;48.946;8.846;2022-08-21T07:45:21;24.00;73.20
33073;DHT22;19432;48.946;8.846;2022-08-21T07:47:47;24.20;72.80
33073;DHT22;19432;48.946;8.846;2022-08-21T07:50:14;24.40;71.90
33073;DHT22;19432;48.946;8.846;2022-08-21T07:52:41;24.70;71.20
33073;DHT22;19432;48.946;8.846;2022-08-21T07:55:08;24.90;70.00
33073;DHT22;19432;48.946;8.846;2022-08-21T07:57:34;25.10;68.90
33073;DHT22;19432;48.946;8.846;2022-08-21T08:00:00;25.30;68.70
33073;DHT22;19432;48.946;8.846;2022-08-21T08:02:28;25.40;68.10
33073;DHT22;19432;48.946;8.846;2022-08-21T08:04:54;25.60;67.10
33073;DHT22;19432;48.946;8.846;2022-08-21T08:07:23;25.80;67.00
33073;DHT22;19432;48.946;8.846;2022-08-21T08:09:48;26.00;65.40
33073;DHT22;19432;48.946;8.846;2022-08-21T08:12:14;26.10;63.90
33073;DHT22;19432;48.946;8.846;2022-08-21T08:14:40;26.20;64.40
33073;DHT22;19432;48.946;8.846;2022-08-21T08:17:05;26.30;64.60
33073;DHT22;19432;48.946;8.846;2022-08-21T08:19:31;26.50;64.00
33073;DHT22;19432;48.946;8.846;2022-08-21T08:21:56;26.70;63.40
33073;DHT22;19432;48.946;8.846;2022-08-21T08:24:22;26.90;63.40
33073;DHT22;19432;48.946;8.846;2022-08-21T08:26:48;27.10;62.40
33073;DHT22;19432;48.946;8.846;2022-08-21T08:29:13;27.20;62.00
33073;DHT22;19432;48.946;8.846;2022-08-21T08:31:39;27.20;61.90
33073;DHT22;19432;48.946;8.846;2022-08-21T08:34:05;27.30;61.20
33073;DHT22;19432;48.946;8.846;2022-08-21T08:36:35;27.40;61.40
33073;DHT22;19432;48.946;8.846;2022-08-21T08:39:03;27.60;61.30
33073;DHT22;19432;48.946;8.846;2022-08-21T08:41:30;27.80;60.20
33073;DHT22;19432;48.946;8.846;2022-08-21T08:44:00;28.00;60.10
33073;DHT22;19432;48.946;8.846;2022-08-21T08:46:40;28.20;59.90
33073;DHT22;19432;48.946;8.846;2022-08-21T08:51:49;28.50;58.90
33073;DHT22;19432;48.946;8.846;2022-08-21T08:54:21;28.60;58.30
33073;DHT22;19432;48.946;8.846;2022-08-21T08:56:51;28.60;58.30
33073;DHT22;19432;48.946;8.846;2022-08-21T08:59:26;28.70;58.20
33073;DHT22;19432;48.946;8.846;2022-08-21T09:01:52;28.90;58.40
33073;DHT22;19432;48.946;8.846;2022-08-21T09:04:22;29.00;57.50
33073;DHT22;19432;48.946;8.846;2022-08-21T09:07:05;29.20;56.80
33073;DHT22;19432;48.946;8.846;2022-08-21T09:12:39;29.50;54.30
33073;DHT22;19432;48.946;8.846;2022-08-21T09:16:15;29.60;53.60
33073;DHT22;19432;48.946;8.846;2022-08-21T09:18:50;29.60;53.80
33073;DHT22;19432;48.946;8.846;2022-08-21T09:24:18;29.60;54.10
33073;DHT22;19432;48.946;8.846;2022-08-21T09:29:23;29.60;54.00
33073;DHT22;19432;48.946;8.846;2022-08-21T09:31:50;29.90;53.90
33073;DHT22;19432;48.946;8.846;2022-08-21T09:34:27;30.00;53.30
33073;DHT22;19432;48.946;8.846;2022-08-21T09:36:53;30.30;53.40
33073;DHT22;19432;48.946;8.846;2022-08-21T09:39:25;30.40;52.10
33073;DHT22;19432;48.946;8.846;2022-08-21T09:42:07;30.40;52.60
33073;DHT22;19432;48.946;8.846;2022-08-21T09:44:35;30.40;51.60
33073;DHT22;19432;48.946;8.846;2022-08-21T09:47:09;30.10;51.00
33073;DHT22;19432;48.946;8.846;2022-08-21T09:49:40;29.90;52.20
33073;DHT22;19432;48.946;8.846;2022-08-21T09:52:19;29.90;52.10
33073;DHT22;19432;48.946;8.846;2022-08-21T09:54:50;30.00;52.30
33073;DHT22;19432;48.946;8.846;2022-08-21T09:57:24;30.10;52.50
33073;DHT22;19432;48.946;8.846;2022-08-21T10:02:39;29.70;52.40
33073;DHT22;19432;48.946;8.846;2022-08-21T10:07:41;29.20;52.00
33073;DHT22;19432;48.946;8.846;2022-08-21T10:10:22;29.00;53.10
33073;DHT22;19432;48.946;8.846;2022-08-21T10:23:57;28.50;53.90
33073;DHT22;19432;48.946;8.846;2022-08-21T10:34:53;28.40;51.50
33073;DHT22;19432;48.946;8.846;2022-08-21T10:37:44;28.40;51.70
33073;DHT22;19432;48.946;8.846;2022-08-21T10:40:34;28.20;50.90
33073;DHT22;19432;48.946;8.846;2022-08-21T10:49:13;27.80;50.40
33073;DHT22;19432;48.946;8.846;2022-08-21T10:54:20;27.80;52.80
33073;DHT22;19432;48.946;8.846;2022-08-21T10:56:51;27.90;52.70
33073;DHT22;19432;48.946;8.846;2022-08-21T10:59:33;28.00;53.70
33073;DHT22;19432;48.946;8.846;2022-08-21T11:02:13;28.10;53.40
33073;DHT22;19432;48.946;8.846;2022-08-21T11:07:34;28.30;53.30
33073;DHT22;19432;48.946;8.846;2022-08-21T11:10:08;28.30;53.10
33073;DHT22;19432;48.946;8.846;2022-08-21T11:12:41;28.40;52.10
33073;DHT22;19432;48.946;8.846;2022-08-21T11:21:14;28.20;52.10
33073;DHT22;19432;48.946;8.846;2022-08-21T11:23:53;28.30;52.80
33073;DHT22;19432;48.946;8.846;2022-08-21T11:26:39;28.30;52.80
33073;DHT22;19432;48.946;8.846;2022-08-21T11:29:16;28.40;52.60
33073;DHT22;19432;48.946;8.846;2022-08-21T11:31:56;28.50;51.20
33073;DHT22;19432;48.946;8.846;2022-08-21T11:34:33;28.60;51.20
33073;DHT22;19432;48.946;8.846;2022-08-21T11:40:03;28.70;50.90
33073;DHT22;19432;48.946;8.846;2022-08-21T11:42:55;28.80;50.90
33073;DHT22;19432;48.946;8.846;2022-08-21T11:48:28;28.60;50.50
33073;DHT22;19432;48.946;8.846;2022-08-21T11:50:57;28.60;50.90
33073;DHT22;19432;48.946;8.846;2022-08-21T11:53:32;28.70;49.50
33073;DHT22;19432;48.946;8.846;2022-08-21T11:58:43;28.80;50.20
33073;DHT22;19432;48.946;8.846;2022-08-21T12:01:25;28.90;49.50
33073;DHT22;19432;48.946;8.846;2022-08-21T12:04:28;29.00;49.40
33073;DHT22;19432;48.946;8.846;2022-08-21T12:06:55;29.10;49.00
33073;DHT22;19432;48.946;8.846;2022-08-21T12:17:07;29.40;49.70
33073;DHT22;19432;48.946;8.846;2022-08-21T12:19:33;29.40;49.90
33073;DHT22;19432;48.946;8.846;2022-08-21T12:29:48;29.70;48.80
33073;DHT22;19432;48.946;8.846;2022-08-21T12:35:06;29.80;48.60
33073;DHT22;19432;48.946;8.846;2022-08-21T12:37:42;29.90;48.60
33073;DHT22;19432;48.946;8.846;2022-08-21T12:40:28;30.00;48.30
33073;DHT22;19432;48.946;8.846;2022-08-21T12:42:58;30.00;47.50
33073;DHT22;19432;48.946;8.846;2022-08-21T12:45:43;30.10;47.60
33073;DHT22;19432;48.946;8.846;2022-08-21T12:48:21;30.10;47.70
33073;DHT22;19432;48.946;8.846;2022-08-21T12:50:54;30.10;47.80
33073;DHT22;19432;48.946;8.846;2022-08-21T12:55:54;30.20;47.40
33073;DHT22;19432;48.946;8.846;2022-08-21T12:58:25;30.30;47.40
33073;DHT22;19432;48.946;8.846;2022-08-21T13:00:55;30.40;47.10
33073;DHT22;19432;48.946;8.846;2022-08-21T13:03:22;30.40;48.00
33073;DHT22;19432;48.946;8.846;2022-08-21T13:05:48;30.50;48.00
33073;DHT22;19432;48.946;8.846;2022-08-21T13:08:19;30.60;47.80
33073;DHT22;19432;48.946;8.846;2022-08-21T13:10:47;30.60;47.20
33073;DHT22;19432;48.946;8.846;2022-08-21T13:13:20;30.70;47.40
33073;DHT22;19432;48.946;8.846;2022-08-21T13:15:46;30.70;47.90
33073;DHT22;19432;48.946;8.846;2022-08-21T13:18:24;30.60;47.50
33073;DHT22;19432;48.946;8.846;2022-08-21T13:20:50;30.30;47.70
33073;DHT22;19432;48.946;8.846;2022-08-21T13:23:27;30.30;48.30
33073;DHT22;19432;48.946;8.846;2022-08-21T13:25:54;30.30;48.00
33073;DHT22;19432;48.946;8.846;2022-08-21T13:28:20;30.40;48.30
33073;DHT22;19432;48.946;8.846;2022-08-21T13:30:55;30.60;48.00
33073;DHT22;19432;48.946;8.846;2022-08-21T13:33:24;30.60;48.00
33073;DHT22;19432;48.946;8.846;2022-08-21T13:38:33;30.80;47.80
33073;DHT22;19432;48.946;8.846;2022-08-21T13:43:45;30.90;47.00
33073;DHT22;19432;48.946;8.846;2022-08-21T13:46:12;30.90;47.00
33073;DHT22;19432;48.946;8.846;2022-08-21T13:48:40;31.00;46.50
33073;DHT22;19432;48.946;8.846;2022-08-21T13:51:07;31.00;47.30
33073;DHT22;19432;48.946;8.846;2022-08-21T13:53:36;31.00;46.80
33073;DHT22;19432;48.946;8.846;2022-08-21T13:56:03;31.00;46.60
33073;DHT22;19432;48.946;8.846;2022-08-21T13:58:40;31.00;46.60
33073;DHT22;19432;48.946;8.846;2022-08-21T14:03:50;31.00;46.50
33073;DHT22;19432;48.946;8.846;2022-08-21T14:06:18;31.00;46.30
33073;DHT22;19432;48.946;8.846;2022-08-21T14:09:13;31.00;46.00
33073;DHT22;19432;48.946;8.846;2022-08-21T14:11:41;31.10;45.90
33073;DHT22;19432;48.946;8.846;2022-08-21T14:14:23;31.10;45.80
33073;DHT22;19432;48.946;8.846;2022-08-21T14:16:56;31.10;46.00
33073;DHT22;19432;48.946;8.846;2022-08-21T14:19:26;31.10;45.80
33073;DHT22;19432;48.946;8.846;2022-08-21T14:21:52;31.10;45.80
33073;DHT22;19432;48.946;8.846;2022-08-21T14:27:05;31.10;45.50
33073;DHT22;19432;48.946;8.846;2022-08-21T14:29:38;31.10;45.50
33073;DHT22;19432;48.946;8.846;2022-08-21T14:32:12;31.10;46.20
33073;DHT22;19432;48.946;8.846;2022-08-21T14:34:38;31.10;45.60
33073;DHT22;19432;48.946;8.846;2022-08-21T14:37:04;31.10;45.60
33073;DHT22;19432;48.946;8.846;2022-08-21T14:39:29;31.10;45.70
33073;DHT22;19432;48.946;8.846;2022-08-21T14:41:57;31.10;45.50
33073;DHT22;19432;48.946;8.846;2022-08-21T14:44:23;31.10;45.30
33073;DHT22;19432;48.946;8.846;2022-08-21T14:46:48;31.10;45.50
33073;DHT22;19432;48.946;8.846;2022-08-21T14:49:14;31.00;45.80
33073;DHT22;19432;48.946;8.846;2022-08-21T14:51:40;31.00;45.70
33073;DHT22;19432;48.946;8.846;2022-08-21T14:54:06;31.10;45.80
33073;DHT22;19432;48.946;8.846;2022-08-21T14:56:33;31.10;45.70
33073;DHT22;19432;48.946;8.846;2022-08-21T14:59:05;31.10;45.80
33073;DHT22;19432;48.946;8.846;2022-08-21T15:01:35;31.00;45.10
33073;DHT22;19432;48.946;8.846;2022-08-21T15:04:01;31.00;45.50
33073;DHT22;19432;48.946;8.846;2022-08-21T15:06:26;31.00;44.90
33073;DHT22;19432;48.946;8.846;2022-08-21T15:08:52;30.90;45.50
33073;DHT22;19432;48.946;8.846;2022-08-21T15:11:23;30.80;45.60
33073;DHT22;19432;48.946;8.846;2022-08-21T15:13:54;30.80;45.50
33073;DHT22;19432;48.946;8.846;2022-08-21T15:16:20;30.80;45.50
33073;DHT22;19432;48.946;8.846;2022-08-21T15:18:46;30.90;45.80
33073;DHT22;19432;48.946;8.846;2022-08-21T15:21:12;30.90;45.70
33073;DHT22;19432;48.946;8.846;2022-08-21T15:23:38;30.90;45.80
33073;DHT22;19432;48.946;8.846;2022-08-21T15:26:03;30.80;45.30
33073;DHT22;19432;48.946;8.846;2022-08-21T15:28:30;30.80;45.90
33073;DHT22;19432;48.946;8.846;2022-08-21T15:30:55;30.90;45.60
33073;DHT22;19432;48.946;8.846;2022-08-21T15:33:21;30.90;45.50
33073;DHT22;19432;48.946;8.846;2022-08-21T15:35:47;30.90;45.50
33073;DHT22;19432;48.946;8.846;2022-08-21T15:38:14;30.80;45.40
33073;DHT22;19432;48.946;8.846;2022-08-21T15:40:41;30.80;45.90
33073;DHT22;19432;48.946;8.846;2022-08-21T15:43:11;30.80;45.50
33073;DHT22;19432;48.946;8.846;2022-08-21T15:45:38;30.80;46.10
33073;DHT22;19432;48.946;8.846;2022-08-21T15:48:04;30.70;45.50
33073;DHT22;19432;48.946;8.846;2022-08-21T15:50:29;30.70;45.70
33073;DHT22;19432;48.946;8.846;2022-08-21T15:52:57;30.60;45.80
33073;DHT22;19432;48.946;8.846;2022-08-21T15:55:22;30.60;46.00
33073;DHT22;19432;48.946;8.846;2022-08-21T15:57:51;30.60;46.20
33073;DHT22;19432;48.946;8.846;2022-08-21T16:00:20;30.60;45.90
33073;DHT22;19432;48.946;8.846;2022-08-21T16:02:53;30.40;45.80
33073;DHT22;19432;48.946;8.846;2022-08-21T16:05:20;30.40;45.90
33073;DHT22;19432;48.946;8.846;2022-08-21T16:07:47;30.30;46.00
33073;DHT22;19432;48.946;8.846;2022-08-21T16:10:15;30.20;46.10
33073;DHT22;19432;48.946;8.846;2022-08-21T16:12:45;30.20;46.20
33073;DHT22;19432;48.946;8.846;2022-08-21T16:15:13;30.20;46.40
33073;DHT22;19432;48.946;8.846;2022-08-21T16:17:41;30.30;46.10
33073;DHT22;19432;48.946;8.846;2022-08-21T16:20:11;30.20;45.90
33073;DHT22;19432;48.946;8.846;2022-08-21T16:22:38;30.20;46.10
33073;DHT22;19432;48.946;8.846;2022-08-21T16:25:05;30.20;46.90
33073;DHT22;19432;48.946;8.846;2022-08-21T16:27:32;30.20;46.00
33073;DHT22;19432;48.946;8.846;2022-08-21T16:29:59;30.10;46.10
33073;DHT22;19432;48.946;8.846;2022-08-21T16:32:24;30.10;46.00
33073;DHT22;19432;48.946;8.846;2022-08-21T16:34:50;30.10;46.40
33073;DHT22;19432;48.946;8.846;2022-08-21T16:37:19;30.00;46.20
33073;DHT22;19432;48.946;8.846;2022-08-21T16:39:44;29.90;45.80
33073;DHT22;19432;48.946;8.846;2022-08-21T16:42:14;29.90;45.90
33073;DHT22;19432;48.946;8.846;2022-08-21T16:44:42;29.80;46.00
33073;DHT22;19432;48.946;8.846;2022-08-21T16:47:08;29.80;46.00
33073;DHT22;19432;48.946;8.846;2022-08-21T16:49:34;29.70;46.20
33073;DHT22;19432;48.946;8.846;2022-08-21T16:52:00;29.60;46.30
33073;DHT22;19432;48.946;8.846;2022-08-21T16:54:26;29.60;46.40
33073;DHT22;19432;48.946;8.846;2022-08-21T16:56:54;29.50;45.90
33073;DHT22;19432;48.946;8.846;2022-08-21T16:59:20;29.50;46.50
33073;DHT22;19432;48.946;8.846;2022-08-21T17:01:45;29.40;46.20
33073;DHT22;19432;48.946;8.846;2022-08-21T17:04:11;29.40;46.00
33073;DHT22;19432;48.946;8.846;2022-08-21T17:06:37;29.30;46.50
33073;DHT22;19432;48.946;8.846;2022-08-21T17:09:03;29.30;47.00
33073;DHT22;19432;48.946;8.846;2022-08-21T17:11:34;29.20;46.50
33073;DHT22;19432;48.946;8.846;2022-08-21T17:14:04;29.10;46.40
33073;DHT22;19432;48.946;8.846;2022-08-21T17:16:30;29.10;46.70